x

South Hatteras - 225 South Of Cape Hatteras (41002) Wave Buoy

3:50am - Mon 21st Aug 2017 All times are EDT. -4 hours from GMT.

  • Sig Wave height 2.6ft
  • Swell Direction
  • Peak Period 9s
  • Average Period 6s
  • Wind
    9mph, 11mph gusts
  • Sea Temp 84°f
  • 空気 Temp 83°f
  • Sea Pressure 1020.7mb
  • South Hatteras - 225 South Of Cape Hatteras
  • South Hatteras - 225 South Of Cape Hatteras

More Historic Weather Station data

Upgrade to MSW Pro to gain access to the past 30 days of data for over 8000 Wavebouys and Weather Stations around the globe.

Join

Comparision Forecast

View Surf forecast
   
Mon 08/21 3:50am 2.5ft 9s 6s 9 11 mph 1020.7mb 84f 83f
2:50am 2.5ft 8s 5s 7 9 mph 1020.6mb 85f 83f
1:50am 2.5ft 8s 6s 4 7 mph 1020.9mb 85f 83f
12:50am 3.5ft 7s 6s 4 7 mph 1021.3mb 85f 81f
Sun 08/20 11:50pm 3.5ft 8s 6s 9 11 mph 1021.4mb 85f 83f
10:50pm 3.5ft 9s 6s 9 11 mph 1021.5mb 85f 83f
8:50pm 3.5ft 8s 5s 9 9 mph 1020.9mb 85f 83f
6:50pm 3.5ft 8s 5s 9 9 mph 1020.1mb 85f 83f
5:50pm 3.5ft 8s 5s 11 13 mph 1019.4mb 85f 82f
4:50pm 3.5ft 8s 6s 13 16 mph 1019.2mb 86f 83f
3:50pm 3ft 8s 6s 9 11 mph 1019.4mb 86f 83f
2:50pm 3ft 9s 6s 7 9 mph 1019.7mb 86f 83f
1:50pm 3ft 8s 5s 7 9 mph 1020.1mb 85f 83f
12:50pm 3.5ft 8s 5s 7 9 mph 1020.2mb 85f 83f
11:50am 3ft 9s 5s 7 9 mph 1019.8mb 85f 83f
10:50am 3.5ft 9s 5s 7 9 mph 1019.7mb 84f 82f
9:50am 3.5ft 5s 5s 4 7 mph 1019.6mb 84f 82f
8:50am 3.5ft 8s 5s 13 18 mph 1019.5mb 84f 79f
7:50am 3.5ft 9s 5s 4 7 mph 1019.2mb 84f 81f
6:50am 3.5ft 10s 5s 7 9 mph 1018.7mb 84f 82f
5:50am 3.5ft 5s 5s 11 13 mph 1017.9mb 84f 78f
4:50am 3.5ft 9s 5s 11 13 mph 1017.6mb 84f 83f
3:50am 3.5ft 5s 5s 13 16 mph 1017.2mb 84f 83f
2:50am 3.5ft 8s 5s 13 16 mph 1017.2mb 84f 83f
1:50am 3.5ft 9s 5s 13 16 mph 1017.5mb 84f 83f
12:50am 4ft 8s 5s 13 16 mph 1017.7mb 84f 83f
Sat 08/19 11:50pm 4ft 6s 5s 16 18 mph 1017.6mb 84f 83f
10:50pm 4ft 8s 6s 13 16 mph 1017mb 84f 84f
9:50pm 4.5ft 8s 6s 11 13 mph 1017.1mb 84f 84f
8:50pm 4ft 8s 5s 9 11 mph 1017mb 85f 84f
7:50pm 4.5ft 8s 5s 11 13 mph 1016.7mb 85f 84f
6:50pm 4ft 8s 5s 13 16 mph 1016.2mb 85f 84f
5:50pm 4ft 9s 5s 13 16 mph 1015.8mb 85f 84f
4:50pm 3.5ft 8s 5s 13 16 mph 1015.8mb 85f 84f
3:50pm 3.5ft 8s 5s 13 16 mph 1016.1mb 85f 84f
2:50pm 3.5ft 9s 5s 13 16 mph 1016.5mb 85f 84f
1:50pm 3.5ft 6s 5s 13 16 mph 1017mb 85f 84f
12:50pm 3.5ft 5s 5s 13 16 mph 1017.3mb 84f 84f
11:50am 3.5ft 9s 5s 11 16 mph 1017.2mb 84f 84f
10:50am 4ft 5s 5s 13 16 mph 1017.3mb 84f 84f
9:50am 4ft 6s 5s 13 18 mph 1016.7mb 84f 84f
8:50am 4ft 6s 5s 13 16 mph 1016.4mb 84f 83f
7:50am 4ft 5s 5s 11 16 mph 1016.2mb 84f 83f
6:50am 4.5ft 5s 5s 13 16 mph 1016.1mb 84f 83f
5:50am 4.5ft 5s 5s 16 18 mph 1015.7mb 84f 83f
4:50am 4ft 5s 5s 16 20 mph 1015.5mb 84f 83f
3:50am 4.5ft 5s 5s 16 20 mph 1015.9mb 84f 84f
2:50am 4ft 5s 5s 18 20 mph 1016.2mb 84f 84f
1:50am 3.5ft 7s 5s 18 20 mph 1016.5mb 84f 84f
12:50am 3.5ft 8s 5s 18 20 mph 1016.7mb 84f 84f
Fri 08/18 11:50pm 3.5ft 8s 5s 16 20 mph 1016.6mb 84f 84f
10:50pm 3.5ft 8s 5s 16 18 mph 1016.6mb 84f 84f
9:50pm 3ft 8s 4s 13 16 mph 1016.5mb 85f 84f
8:50pm 3ft 5s 5s 16 18 mph 1016.3mb 85f 84f
7:50pm 3ft 5s 5s 13 16 mph 1016mb 85f 84f
6:50pm 3ft 5s 5s 11 13 mph 1015.8mb 85f 85f
5:50pm 3ft 8s 5s 11 13 mph 1015.6mb 85f 84f
4:50pm 3ft 4s 5s 9 11 mph 1015.4mb 85f 84f
3:50pm 2.5ft 5s 5s 9 11 mph 1015.5mb 85f 84f
2:50pm 2.5ft 8s 5s 9 11 mph 1016.1mb 85f 84f
1:50pm 2.5ft 4s 5s 11 11 mph 1016.7mb 85f 84f
12:50pm 2.5ft 4s 5s 11 13 mph 1017.3mb 85f 84f
11:50am 2.5ft 5s 5s 11 13 mph 1017.5mb 85f 84f
10:50am 2.5ft 4s 4s 11 11 mph 1017.5mb 84f 84f
9:50am 2.5ft 5s 5s 9 11 mph 1016.9mb 84f 84f
8:50am 2.5ft 6s 4s 16 18 mph 1016.7mb 84f 83f
7:50am 2.5ft 7s 5s 13 13 mph 1016.5mb 84f 84f
6:50am 2.5ft 8s 5s 11 13 mph 1016mb 84f 83f
5:50am 2.5ft 8s 5s 16 20 mph 1015.5mb 84f 83f
4:50am 2.5ft 8s 5s 9 11 mph 1015.5mb 84f 83f
3:50am 2.5ft 7s 5s 2 4 mph 1015.6mb 84f 82f
2:50am 2.5ft 5s 5s 16 20 mph 1016.2mb 84f 80f
1:50am 2.5ft 7s 5s 9 9 mph 1016.6mb 84f 82f
12:50am 2.5ft 4s 5s 2 4 mph 1017.4mb 84f 82f
Thu 08/17 11:50pm 2ft 6s 5s 7 11 mph 1017.7mb 84f 80f
10:50pm 2.5ft 5s 5s 18 25 mph 1017.8mb 84f 78f
9:50pm 2.5ft 5s 5s 7 9 mph 1017.5mb 85f 82f
8:50pm 2ft 5s 5s 16 22 mph 1017.2mb 85f 81f
7:50pm 2.5ft 4s 5s 4 4 mph 1016.5mb 85f 84f
6:50pm 2.5ft 5s 4s 2 2 mph 1016.4mb 85f 85f
5:50pm 2.5ft 5s 5s 4 7 mph 1016.1mb 85f 85f
4:50pm 2.5ft 4s 4s 7 9 mph 1016.1mb 85f 85f
3:50pm 2.5ft 5s 4s 11 11 mph 1016.2mb 85f 84f
2:50pm 2.5ft 5s 4s 11 11 mph 1016.7mb 85f 84f
1:50pm 2.5ft 5s 5s 11 13 mph 1017.6mb 85f 84f
12:50pm 2.5ft 5s 4s 7 7 mph 1018.1mb 84f 83f
11:50am 2.5ft 5s 5s 11 13 mph 1018.2mb 84f 83f
10:50am 2.5ft 5s 5s 9 11 mph 1018.4mb 84f 84f
9:50am 2.5ft 5s 5s 9 11 mph 1017.8mb 84f 83f
8:50am 3.5ft 5s 5s 7 9 mph 1017.8mb 84f 81f